createdAt,value
2024-01-16T00:02:16.574Z,4.40
2024-01-16T00:04:43.880Z,1.30
2024-01-16T00:07:11.190Z,1.30
2024-01-16T00:09:38.281Z,1.20
2024-01-16T00:12:05.937Z,1.50
2024-01-16T00:14:39.528Z,1.10
2024-01-16T00:17:07.238Z,0.90
2024-01-16T00:19:34.617Z,1.20
2024-01-16T00:22:03.976Z,1.17
2024-01-16T00:24:31.310Z,1.30
2024-01-16T00:26:58.726Z,1.40
2024-01-16T00:29:26.547Z,1.30
2024-01-16T00:31:53.728Z,1.57
2024-01-16T00:34:21.130Z,1.83
2024-01-16T00:36:48.316Z,1.60
2024-01-16T00:39:15.476Z,1.70
2024-01-16T00:41:42.994Z,1.70
2024-01-16T00:44:10.147Z,1.50
2024-01-16T00:46:37.376Z,1.43
2024-01-16T00:49:04.657Z,1.83
2024-01-16T00:51:31.977Z,1.17
2024-01-16T00:53:59.189Z,1.30
2024-01-16T00:56:29.076Z,1.57
2024-01-16T00:58:56.407Z,1.80
2024-01-16T01:01:24.314Z,1.40
2024-01-16T01:03:52.887Z,1.50
2024-01-16T01:06:20.524Z,1.77
2024-01-16T01:08:47.788Z,1.60
2024-01-16T01:11:15.143Z,1.63
2024-01-16T01:13:42.616Z,1.60
2024-01-16T01:16:10.002Z,1.50
2024-01-16T01:18:37.194Z,1.60
2024-01-16T01:21:04.526Z,1.70
2024-01-16T01:23:32.548Z,1.60
2024-01-16T01:25:59.741Z,1.20
2024-01-16T01:28:26.910Z,1.80
2024-01-16T01:30:54.232Z,1.40
2024-01-16T01:33:21.700Z,2.00
2024-01-16T01:35:48.999Z,1.53
2024-01-16T01:38:16.206Z,2.20
2024-01-16T01:40:44.837Z,1.23
2024-01-16T01:43:20.851Z,1.93
2024-01-16T01:46:00.324Z,2.53
2024-01-16T01:48:27.725Z,2.20
2024-01-16T01:50:55.006Z,1.67
2024-01-16T01:53:22.185Z,1.87
2024-01-16T01:55:49.852Z,2.00
2024-01-16T01:58:17.538Z,2.07
2024-01-16T02:00:45.993Z,1.63
2024-01-16T02:03:13.562Z,1.73
2024-01-16T02:05:41.243Z,1.53
2024-01-16T02:08:09.532Z,1.57
2024-01-16T02:10:40.161Z,1.47
2024-01-16T02:13:07.372Z,1.67
2024-01-16T02:15:34.546Z,1.90
2024-01-16T02:18:01.770Z,1.57
2024-01-16T02:20:29.708Z,1.00
2024-01-16T02:22:57.882Z,1.23
2024-01-16T02:25:25.171Z,1.60
2024-01-16T02:27:52.261Z,1.40
2024-01-16T02:30:19.650Z,1.30
2024-01-16T02:32:46.927Z,1.43
2024-01-16T02:35:14.299Z,1.43
2024-01-16T02:37:41.502Z,1.47
2024-01-16T02:40:10.700Z,2.07
2024-01-16T02:42:38.904Z,1.43
2024-01-16T02:45:07.012Z,1.40
2024-01-16T02:47:34.807Z,1.90
2024-01-16T02:50:02.735Z,1.20
2024-01-16T02:52:30.028Z,1.90
2024-01-16T02:54:57.304Z,1.70
2024-01-16T02:57:24.506Z,1.40
2024-01-16T02:59:52.052Z,1.40
2024-01-16T03:02:19.403Z,1.30
2024-01-16T03:04:46.879Z,1.30
2024-01-16T03:07:14.121Z,1.30
2024-01-16T03:09:41.294Z,1.50
2024-01-16T03:12:08.554Z,1.50
2024-01-16T03:14:37.364Z,1.43
2024-01-16T03:17:05.130Z,1.27
2024-01-16T03:19:32.369Z,1.40
2024-01-16T03:21:59.902Z,1.30
2024-01-16T03:24:27.618Z,1.50
2024-01-16T03:26:55.096Z,1.30
2024-01-16T03:29:22.478Z,1.70
2024-01-16T03:31:49.827Z,1.20
2024-01-16T03:34:17.018Z,1.50
2024-01-16T03:36:44.139Z,1.50
2024-01-16T03:39:11.388Z,2.00
2024-01-16T03:41:38.883Z,2.10
2024-01-16T03:44:06.403Z,1.20
2024-01-16T03:46:33.605Z,1.00
2024-01-16T03:49:00.834Z,1.30
2024-01-16T03:51:28.017Z,1.60
2024-01-16T03:53:55.208Z,1.53
2024-01-16T03:56:23.316Z,1.10
2024-01-16T03:58:50.489Z,1.40
2024-01-16T04:01:17.719Z,0.90
2024-01-16T04:03:44.892Z,1.67
2024-01-16T04:06:19.248Z,1.50
2024-01-16T04:08:47.174Z,1.30
2024-01-16T04:11:15.816Z,1.30
2024-01-16T04:13:43.819Z,0.80
2024-01-16T04:16:17.435Z,1.70
2024-01-16T04:18:51.012Z,1.20
2024-01-16T04:21:21.086Z,1.30
2024-01-16T04:23:48.860Z,1.20
2024-01-16T04:26:16.136Z,1.30
2024-01-16T04:28:44.220Z,1.30
2024-01-16T04:31:13.319Z,1.70
2024-01-16T04:33:41.768Z,1.67
2024-01-16T04:36:08.971Z,1.10
2024-01-16T04:38:36.043Z,1.40
2024-01-16T04:41:04.254Z,2.20
2024-01-16T04:43:31.567Z,1.20
2024-01-16T04:46:01.193Z,1.60
2024-01-16T04:48:29.914Z,1.83
2024-01-16T04:50:57.177Z,1.90
2024-01-16T04:53:25.066Z,2.00
2024-01-16T04:55:52.284Z,1.57
2024-01-16T04:58:20.096Z,1.87
2024-01-16T05:00:47.970Z,1.50
2024-01-16T05:03:15.248Z,1.80
2024-01-16T05:05:42.925Z,1.53
2024-01-16T05:08:10.550Z,1.30
2024-01-16T05:10:37.848Z,1.50
2024-01-16T05:13:05.215Z,2.10
2024-01-16T05:15:32.610Z,2.03
2024-01-16T05:17:59.940Z,1.50
2024-01-16T05:20:27.091Z,1.33
2024-01-16T05:22:54.530Z,1.80
2024-01-16T05:25:22.591Z,2.20
2024-01-16T05:27:50.747Z,1.20
2024-01-16T05:30:18.400Z,1.20
2024-01-16T05:32:46.394Z,1.20
2024-01-16T05:35:13.758Z,1.13
2024-01-16T05:37:40.990Z,8.97
2024-01-16T05:40:09.159Z,2.00
2024-01-16T05:42:37.106Z,2.40
2024-01-16T05:45:04.789Z,2.47
2024-01-16T05:47:32.187Z,1.40
2024-01-16T05:49:59.586Z,1.63
2024-01-16T05:52:26.790Z,1.50
2024-01-16T05:54:53.898Z,1.63
2024-01-16T05:57:21.023Z,1.30
2024-01-16T05:59:48.620Z,1.80
2024-01-16T06:02:16.160Z,1.90
2024-01-16T06:04:43.370Z,1.70
2024-01-16T06:07:10.705Z,1.47
2024-01-16T06:09:43.731Z,2.43
2024-01-16T06:12:10.883Z,1.57
2024-01-16T06:14:38.297Z,2.10
2024-01-16T06:17:07.352Z,1.60
2024-01-16T06:19:34.784Z,1.87
2024-01-16T06:22:02.198Z,1.80
2024-01-16T06:24:30.671Z,2.30
2024-01-16T06:26:57.914Z,1.83
2024-01-16T06:29:31.842Z,1.17
2024-01-16T06:32:02.855Z,1.87
2024-01-16T06:34:30.348Z,2.90
2024-01-16T06:36:57.760Z,3.17
2024-01-16T06:39:24.963Z,1.93
2024-01-16T06:41:52.434Z,2.60
2024-01-16T06:44:20.671Z,4.77
2024-01-16T06:46:48.192Z,1.80
2024-01-16T06:49:15.773Z,1.70
2024-01-16T06:51:43.143Z,2.20
2024-01-16T06:54:10.377Z,2.70
2024-01-16T06:56:37.740Z,2.80
2024-01-16T06:59:05.932Z,2.00
2024-01-16T07:01:33.744Z,2.40
2024-01-16T07:04:00.971Z,1.73
2024-01-16T07:06:28.287Z,2.17
2024-01-16T07:08:55.847Z,1.57
2024-01-16T07:11:25.255Z,1.90
2024-01-16T07:13:52.741Z,2.47
2024-01-16T07:16:19.882Z,3.10
2024-01-16T07:18:48.480Z,1.60
2024-01-16T07:21:22.605Z,4.00
2024-01-16T07:23:50.131Z,9.77
2024-01-16T07:26:17.904Z,3.83
2024-01-16T07:28:45.377Z,4.13
2024-01-16T07:31:13.115Z,4.90
2024-01-16T07:33:40.647Z,2.20
2024-01-16T07:36:13.791Z,4.87
2024-01-16T07:38:41.163Z,4.87
2024-01-16T07:41:08.422Z,1.90
2024-01-16T07:43:36.478Z,4.53
2024-01-16T07:46:04.310Z,2.60
2024-01-16T07:48:31.749Z,2.63
2024-01-16T07:50:59.137Z,2.63
2024-01-16T07:53:28.958Z,2.50
2024-01-16T07:55:56.400Z,2.00
2024-01-16T07:58:23.757Z,4.73
2024-01-16T08:00:51.211Z,5.43
2024-01-16T08:03:18.606Z,2.30
2024-01-16T08:05:46.071Z,3.10
2024-01-16T08:08:13.439Z,16.60
2024-01-16T08:10:43.576Z,4.97
2024-01-16T08:13:10.734Z,11.47
2024-01-16T08:15:38.295Z,7.53
2024-01-16T08:18:05.913Z,4.93
2024-01-16T08:20:33.772Z,3.10
2024-01-16T08:23:01.084Z,5.00
2024-01-16T08:25:28.590Z,3.00
2024-01-16T08:27:55.864Z,3.20
2024-01-16T08:30:23.047Z,1.80
2024-01-16T08:32:50.281Z,2.83
2024-01-16T08:35:17.675Z,3.93
2024-01-16T08:37:44.967Z,8.90
2024-01-16T08:40:13.155Z,3.80
2024-01-16T08:42:40.680Z,6.13
2024-01-16T08:45:08.048Z,13.50
2024-01-16T08:47:35.658Z,8.30
2024-01-16T08:50:03.507Z,7.60
2024-01-16T08:52:30.744Z,3.27
2024-01-16T08:54:58.974Z,2.43
2024-01-16T08:57:27.877Z,4.40
2024-01-16T08:59:56.985Z,3.63
2024-01-16T09:02:25.443Z,3.30
2024-01-16T09:04:52.796Z,2.30
2024-01-16T09:07:20.426Z,3.00
2024-01-16T09:09:47.832Z,2.93
2024-01-16T09:12:15.040Z,7.40
2024-01-16T09:14:42.694Z,4.63
2024-01-16T09:17:10.175Z,16.77
2024-01-16T09:19:37.905Z,18.47
2024-01-16T09:22:05.375Z,7.67
2024-01-16T09:24:32.593Z,4.03
2024-01-16T09:26:59.772Z,2.90
2024-01-16T09:29:27.032Z,4.80
2024-01-16T09:31:54.164Z,3.47
2024-01-16T09:34:21.396Z,2.90
2024-01-16T09:36:48.644Z,2.70
2024-01-16T09:39:19.244Z,2.37
2024-01-16T09:41:47.533Z,2.57
2024-01-16T09:44:15.366Z,2.67
2024-01-16T09:46:47.727Z,2.80
2024-01-16T09:49:17.481Z,1.90
2024-01-16T09:51:45.574Z,2.13
2024-01-16T09:54:12.808Z,2.60
2024-01-16T09:56:44.580Z,2.20
2024-01-16T09:59:16.400Z,2.40
2024-01-16T10:01:44.960Z,3.00
2024-01-16T10:04:12.429Z,2.23
2024-01-16T10:06:40.829Z,2.20
2024-01-16T10:09:08.272Z,2.10
2024-01-16T10:11:35.670Z,2.47
2024-01-16T10:14:03.515Z,3.00
2024-01-16T10:17:04.356Z,1.60
2024-01-16T10:19:42.718Z,1.80
2024-01-16T10:22:14.398Z,2.30
2024-01-16T10:24:42.296Z,1.93
2024-01-16T10:27:09.620Z,1.77
2024-01-16T10:29:46.764Z,2.00
2024-01-16T10:32:31.223Z,2.30
2024-01-16T10:35:15.724Z,2.30
2024-01-16T10:37:51.475Z,1.80
2024-01-16T10:40:22.622Z,1.73
2024-01-16T10:43:02.740Z,2.10
2024-01-16T10:45:30.219Z,1.97
2024-01-16T10:48:08.214Z,1.43
2024-01-16T10:50:38.808Z,2.40
2024-01-16T10:53:07.872Z,2.00
2024-01-16T10:55:53.495Z,1.80
2024-01-16T10:58:24.024Z,2.00
2024-01-16T11:00:54.637Z,1.60
2024-01-16T11:03:50.655Z,1.63
2024-01-16T11:06:19.904Z,2.13
2024-01-16T11:08:49.290Z,1.50
2024-01-16T11:11:17.390Z,2.40
2024-01-16T11:13:47.895Z,2.53
2024-01-16T11:16:15.447Z,2.40
2024-01-16T11:18:42.786Z,1.80
2024-01-16T11:21:17.502Z,1.97
2024-01-16T11:23:47.531Z,1.77
2024-01-16T11:26:30.538Z,2.47
2024-01-16T11:28:58.068Z,1.90
2024-01-16T11:31:35.200Z,2.40
2024-01-16T11:34:04.612Z,2.80
2024-01-16T11:37:00.694Z,2.63
2024-01-16T11:39:27.980Z,3.57
2024-01-16T11:41:59.720Z,2.60
2024-01-16T11:44:43.701Z,2.80
2024-01-16T11:47:17.677Z,2.97
2024-01-16T11:49:45.380Z,2.60
2024-01-16T11:52:14.291Z,2.63
2024-01-16T11:54:44.520Z,3.00
2024-01-16T11:57:32.611Z,2.40
2024-01-16T12:00:21.141Z,3.10
2024-01-16T12:02:53.583Z,4.30
2024-01-16T12:05:22.478Z,9.27
2024-01-16T12:07:55.523Z,7.83
2024-01-16T12:10:24.655Z,5.03
2024-01-16T12:12:57.219Z,6.13
2024-01-16T12:15:24.497Z,4.13
2024-01-16T12:17:57.755Z,2.90
2024-01-16T12:20:27.079Z,2.57
2024-01-16T12:22:58.197Z,2.67
2024-01-16T12:25:59.828Z,2.70
2024-01-16T12:28:31.317Z,2.90
2024-01-16T12:31:01.824Z,2.20
2024-01-16T12:33:30.106Z,2.23
2024-01-16T12:36:05.575Z,2.60
2024-01-16T12:38:33.742Z,3.80
2024-01-16T12:41:03.963Z,2.40
2024-01-16T12:43:34.363Z,1.70
2024-01-16T12:46:02.008Z,2.93
2024-01-16T12:48:29.707Z,2.20
2024-01-16T12:51:05.847Z,20.10
2024-01-16T12:53:35.183Z,6.00
2024-01-16T12:56:06.164Z,4.03
2024-01-16T12:58:35.986Z,3.40
2024-01-16T13:01:35.066Z,2.70
2024-01-16T13:04:07.540Z,3.60
2024-01-16T13:06:35.467Z,2.70
2024-01-16T13:09:17.552Z,3.20
2024-01-16T13:11:50.323Z,4.93
2024-01-16T13:14:17.414Z,4.10
2024-01-16T13:16:44.632Z,3.20
2024-01-16T13:19:12.535Z,2.40
2024-01-16T13:21:39.677Z,2.40
2024-01-16T13:24:08.138Z,2.30
2024-01-16T13:26:35.425Z,2.27
2024-01-16T13:29:02.488Z,2.50
2024-01-16T13:31:29.752Z,2.63
2024-01-16T13:33:59.608Z,2.80
2024-01-16T13:36:46.724Z,2.77
2024-01-16T13:39:15.968Z,4.37
2024-01-16T13:41:44.664Z,3.00
2024-01-16T13:44:12.299Z,2.37
2024-01-16T13:49:10.109Z,2.20
2024-01-16T13:51:37.456Z,2.23
2024-01-16T13:54:04.849Z,3.13
2024-01-16T13:56:50.784Z,4.80
2024-01-16T13:59:19.221Z,8.13
2024-01-16T14:01:47.750Z,3.80
2024-01-16T14:04:14.874Z,4.30
2024-01-16T14:06:56.296Z,6.53
2024-01-16T14:09:29.216Z,8.93
2024-01-16T14:11:56.535Z,4.77
2024-01-16T14:14:23.753Z,9.80
2024-01-16T14:16:54.666Z,4.87
2024-01-16T14:19:29.396Z,3.90
2024-01-16T14:21:56.666Z,6.47
2024-01-16T14:24:23.912Z,5.90
2024-01-16T14:26:51.127Z,4.03
2024-01-16T14:29:20.281Z,5.17
2024-01-16T14:31:50.671Z,4.00
2024-01-16T14:34:19.436Z,4.93
2024-01-16T14:36:48.035Z,3.20
2024-01-16T14:39:19.323Z,2.63
2024-01-16T14:41:47.515Z,3.33
2024-01-16T14:44:15.115Z,2.60
2024-01-16T14:46:46.076Z,2.33
2024-01-16T14:49:14.946Z,2.90
2024-01-16T14:51:42.666Z,2.77
2024-01-16T14:54:10.496Z,2.97
2024-01-16T14:56:38.081Z,3.63
2024-01-16T14:59:05.693Z,3.43
2024-01-16T15:01:32.928Z,2.60
2024-01-16T15:04:01.003Z,3.03
2024-01-16T15:06:28.846Z,3.17
2024-01-16T15:08:56.532Z,2.30
2024-01-16T15:11:23.943Z,3.97
2024-01-16T15:13:51.295Z,11.30
2024-01-16T15:16:20.058Z,16.30
2024-01-16T15:18:47.662Z,9.13
2024-01-16T15:21:15.669Z,8.73
2024-01-16T15:23:42.947Z,5.77
2024-01-16T15:26:10.388Z,4.40
2024-01-16T15:28:39.080Z,3.67
2024-01-16T15:31:08.979Z,3.40
2024-01-16T15:33:37.148Z,3.80
2024-01-16T15:36:05.127Z,6.43
2024-01-16T15:38:32.881Z,6.50
2024-01-16T15:41:00.389Z,5.97
2024-01-16T15:43:27.635Z,9.20
2024-01-16T15:45:55.113Z,9.80
2024-01-16T15:48:35.953Z,18.40
2024-01-16T15:51:05.309Z,14.60
2024-01-16T15:53:49.127Z,10.40
2024-01-16T15:56:17.237Z,22.40
2024-01-16T15:58:44.313Z,20.33
2024-01-16T16:01:11.542Z,11.50
2024-01-16T16:03:38.930Z,7.23
2024-01-16T16:06:06.544Z,5.77
2024-01-16T16:08:34.063Z,5.47
2024-01-16T16:11:01.833Z,7.20
2024-01-16T16:13:32.584Z,6.10
2024-01-16T16:15:59.811Z,4.57
2024-01-16T16:18:27.064Z,3.60
2024-01-16T16:20:54.490Z,4.23
2024-01-16T16:23:21.799Z,4.53
2024-01-16T16:25:49.289Z,4.37
2024-01-16T16:28:16.510Z,5.87
2024-01-16T16:30:44.695Z,7.50
2024-01-16T16:33:12.698Z,6.80
2024-01-16T16:35:40.262Z,3.70
2024-01-16T16:38:07.548Z,5.83
2024-01-16T16:40:35.155Z,5.00
2024-01-16T16:43:02.326Z,4.47
2024-01-16T16:45:29.627Z,4.40
2024-01-16T16:47:57.948Z,4.40
2024-01-16T16:50:25.262Z,4.07
2024-01-16T16:52:52.574Z,3.40
2024-01-16T16:55:19.868Z,9.07
2024-01-16T16:57:47.025Z,3.57
2024-01-16T17:00:15.124Z,4.30
2024-01-16T17:02:42.594Z,3.50
2024-01-16T17:05:11.006Z,3.20
2024-01-16T17:07:38.432Z,2.47
2024-01-16T17:10:06.328Z,3.60
2024-01-16T17:12:33.629Z,3.80
2024-01-16T17:15:01.106Z,3.30
2024-01-16T17:17:30.568Z,3.90
2024-01-16T17:19:58.305Z,3.57
2024-01-16T17:22:25.592Z,5.17
2024-01-16T17:24:52.757Z,17.27
2024-01-16T17:27:20.054Z,17.90
2024-01-16T17:29:47.532Z,9.93
2024-01-16T17:32:14.908Z,6.73
2024-01-16T17:34:42.353Z,5.80
2024-01-16T17:37:09.631Z,8.27
2024-01-16T17:39:37.132Z,8.27
2024-01-16T17:42:05.143Z,4.70
2024-01-16T17:44:38.403Z,7.53
2024-01-16T17:47:06.042Z,5.10
2024-01-16T17:49:34.817Z,4.67
2024-01-16T17:52:05.444Z,3.73
2024-01-16T17:54:32.751Z,4.67
2024-01-16T17:57:00.298Z,4.90
2024-01-16T17:59:32.344Z,5.70
2024-01-16T18:01:59.803Z,5.77
2024-01-16T18:04:27.575Z,4.77
2024-01-16T18:06:54.806Z,6.20
2024-01-16T18:09:22.230Z,4.33
2024-01-16T18:11:59.790Z,5.33
2024-01-16T18:14:28.066Z,3.43
2024-01-16T18:16:55.547Z,3.80
2024-01-16T18:19:23.778Z,3.00
2024-01-16T18:21:51.498Z,3.33
2024-01-16T18:24:19.055Z,4.60
2024-01-16T18:26:49.564Z,4.07
2024-01-16T18:29:26.585Z,4.50
2024-01-16T18:31:55.276Z,3.90
2024-01-16T18:34:23.124Z,4.13
2024-01-16T18:36:51.370Z,3.90
2024-01-16T18:39:21.646Z,3.70
2024-01-16T18:41:50.256Z,3.63
2024-01-16T18:44:19.100Z,5.47
2024-01-16T18:46:46.821Z,4.10
2024-01-16T18:49:17.571Z,3.77
2024-01-16T18:51:45.734Z,4.13
2024-01-16T18:54:12.922Z,3.80
2024-01-16T18:56:40.377Z,4.13
2024-01-16T18:59:07.896Z,3.77
2024-01-16T19:01:36.206Z,3.83
2024-01-16T19:04:05.268Z,4.13
2024-01-16T19:06:33.213Z,4.33
2024-01-16T19:09:00.697Z,3.90
2024-01-16T19:11:28.425Z,3.20
2024-01-16T19:13:55.569Z,2.97
2024-01-16T19:16:24.214Z,3.60
2024-01-16T19:18:51.616Z,5.73
2024-01-16T19:21:18.986Z,4.60
2024-01-16T19:23:46.451Z,4.13
2024-01-16T19:26:14.453Z,4.63
2024-01-16T19:28:41.621Z,2.90
2024-01-16T19:31:10.020Z,2.80
2024-01-16T19:33:37.480Z,2.67
2024-01-16T19:36:06.947Z,3.17
2024-01-16T19:38:37.083Z,4.13
2024-01-16T19:41:04.707Z,3.60
2024-01-16T19:43:32.521Z,3.47
2024-01-16T19:46:00.151Z,3.30
2024-01-16T19:48:27.563Z,3.37
2024-01-16T19:50:54.987Z,2.87
2024-01-16T19:53:22.653Z,2.33
2024-01-16T19:55:50.536Z,2.83
2024-01-16T19:58:18.216Z,2.73
2024-01-16T20:00:46.235Z,2.57
2024-01-16T20:03:14.451Z,2.43
2024-01-16T20:05:45.160Z,2.60
2024-01-16T20:08:12.874Z,2.73
2024-01-16T20:10:41.482Z,2.13
2024-01-16T20:13:08.922Z,2.83
2024-01-16T20:15:36.819Z,2.83
2024-01-16T20:18:05.055Z,3.23
2024-01-16T20:20:33.056Z,3.20
2024-01-16T20:23:00.629Z,5.00
2024-01-16T20:25:30.805Z,4.67
2024-01-16T20:27:58.332Z,5.73
2024-01-16T20:30:26.082Z,6.00
2024-01-16T20:32:55.979Z,12.00
2024-01-16T20:35:24.593Z,9.30
2024-01-16T20:37:52.053Z,8.90
2024-01-16T20:40:19.532Z,11.77
2024-01-16T20:42:46.735Z,3.90
2024-01-16T20:45:13.949Z,5.27
2024-01-16T20:47:41.796Z,4.70
2024-01-16T20:50:11.181Z,4.43
2024-01-16T20:52:38.944Z,2.57
2024-01-16T20:55:08.481Z,3.23
2024-01-16T20:57:36.351Z,3.10
2024-01-16T21:00:06.438Z,2.90
2024-01-16T21:02:33.908Z,2.43
2024-01-16T21:05:01.466Z,1.90
2024-01-16T21:07:28.883Z,2.00
2024-01-16T21:09:56.299Z,1.80
2024-01-16T21:12:24.047Z,2.03
2024-01-16T21:14:51.326Z,2.10
2024-01-16T21:17:18.691Z,2.20
2024-01-16T21:19:46.309Z,2.13
2024-01-16T21:22:16.708Z,2.07
2024-01-16T21:24:45.931Z,2.40
2024-01-16T21:27:15.807Z,2.00
2024-01-16T21:29:47.295Z,2.30
2024-01-16T21:32:14.500Z,1.60
2024-01-16T21:34:41.696Z,1.60
2024-01-16T21:37:08.881Z,2.20
2024-01-16T21:39:36.682Z,1.70
2024-01-16T21:42:04.541Z,2.03
2024-01-16T21:44:34.473Z,2.00
2024-01-16T21:47:02.107Z,2.33
2024-01-16T21:49:29.319Z,2.13
2024-01-16T21:51:57.404Z,1.60
2024-01-16T21:54:24.736Z,1.87
2024-01-16T21:56:51.955Z,2.00
2024-01-16T21:59:19.073Z,3.37
2024-01-16T22:01:47.605Z,1.90
2024-01-16T22:04:14.857Z,2.37
2024-01-16T22:06:42.128Z,3.07
2024-01-16T22:09:14.346Z,2.20
2024-01-16T22:11:42.180Z,3.00
2024-01-16T22:14:09.667Z,3.13
2024-01-16T22:16:36.909Z,2.53
2024-01-16T22:19:04.577Z,2.80
2024-01-16T22:21:34.179Z,3.00
2024-01-16T22:24:01.991Z,2.30
2024-01-16T22:26:29.507Z,2.43
2024-01-16T22:28:57.000Z,2.20
2024-01-16T22:31:24.205Z,2.20
2024-01-16T22:33:51.771Z,1.80
2024-01-16T22:36:20.031Z,2.00
2024-01-16T22:38:48.387Z,2.03
2024-01-16T22:41:15.650Z,1.70
2024-01-16T22:43:45.576Z,2.03
2024-01-16T22:46:12.770Z,2.37
2024-01-16T22:48:40.063Z,2.10
2024-01-16T22:51:07.860Z,2.23
2024-01-16T22:53:35.140Z,1.97
2024-01-16T22:56:03.783Z,2.37
2024-01-16T22:58:31.272Z,1.90
2024-01-16T23:01:02.431Z,2.00
2024-01-16T23:03:30.812Z,2.57
2024-01-16T23:05:58.360Z,1.80
2024-01-16T23:08:25.673Z,2.10
2024-01-16T23:10:55.193Z,2.00
2024-01-16T23:13:22.919Z,1.63
2024-01-16T23:15:50.136Z,1.90
2024-01-16T23:18:19.177Z,1.60
2024-01-16T23:20:46.643Z,1.57
2024-01-16T23:23:14.375Z,2.70
2024-01-16T23:25:45.419Z,1.90
2024-01-16T23:28:13.931Z,2.20
2024-01-16T23:30:41.173Z,3.33
2024-01-16T23:33:09.370Z,2.70
2024-01-16T23:35:36.991Z,3.20
2024-01-16T23:38:07.127Z,4.93
2024-01-16T23:40:34.383Z,7.00
2024-01-16T23:43:01.806Z,4.17
2024-01-16T23:45:33.706Z,7.40
2024-01-16T23:48:01.994Z,2.70
2024-01-16T23:50:30.335Z,2.47
2024-01-16T23:52:58.679Z,2.30
2024-01-16T23:55:26.266Z,5.43
2024-01-16T23:57:53.544Z,2.70
